This is the latest recevied weather packets stored in our database for station/object HS5XHC-1. If no packets are shown the sender has not sent any weather packets the latest 10 day(s).
| Time | Temp. | Humidity | Pressure | Rain* | Wind** | Luminosity | Snow |
|---|---|---|---|---|---|---|---|
| 1777595630 | 27.22° C | 57% | 968 hPa | - | - | 0 W/m² | - |
| 1777595006 | 26.67° C | 58% | 968 hPa | - | - | 0 W/m² | - |
| 1777594382 | 26.67° C | 58% | 968 hPa | - | - | 0 W/m² | - |
| 1777593758 | 26.67° C | 60% | 968 hPa | - | - | 0 W/m² | - |
| 1777593134 | 26.11° C | 59% | 968 hPa | - | - | 0 W/m² | - |
| 1777592510 | 26.67° C | 57% | 968 hPa | - | - | 0 W/m² | - |
| 1777591886 | 27.22° C | 57% | 968 hPa | - | - | 0 W/m² | - |
| 1777591262 | 27.22° C | 57% | 968 hPa | - | - | 0 W/m² | - |
| 1777590638 | 27.78° C | 56% | 968 hPa | - | - | 0 W/m² | - |
| 1777590014 | 27.78° C | 57% | 968 hPa | - | - | 0 W/m² | - |
| 1777589390 | 27.22° C | 58% | 968 hPa | - | - | 0 W/m² | - |
| 1777588766 | 27.22° C | 57% | 967 hPa | - | - | 0 W/m² | - |
| 1777588142 | 27.22° C | 57% | 967 hPa | - | - | 0 W/m² | - |
| 1777587518 | 26.11° C | 61% | 967 hPa | - | - | 0 W/m² | - |
| 1777586894 | 27.22° C | 57% | 967 hPa | - | - | 0 W/m² | - |
| 1777586270 | 27.78° C | 57% | 967 hPa | - | - | 0 W/m² | - |
| 1777585646 | 27.22° C | 57% | 967 hPa | - | - | 0 W/m² | - |
| 1777585022 | 27.22° C | 58% | 967 hPa | - | - | 0 W/m² | - |
| 1777584398 | 27.22° C | 58% | 967 hPa | - | - | 0 W/m² | - |
| 1777583774 | 27.22° C | 57% | 967 hPa | - | - | 0 W/m² | - |
| 1777583150 | 27.22° C | 57% | 967 hPa | - | - | 0 W/m² | - |
| 1777582526 | 27.78° C | 57% | 967 hPa | - | - | 0 W/m² | - |
| 1777581901 | 27.78° C | 56% | 967 hPa | - | - | 0 W/m² | - |
| 1777581277 | 27.22° C | 57% | 967 hPa | - | - | 0 W/m² | - |
| 1777580653 | 27.78° C | 56% | 967 hPa | - | - | 0 W/m² | - |
* Rain since midnight (hover to see other rain measurements)
** Current wind speed in m/s (hover to see current wind gust speed)